TimeMST,TemperatureF,Dew PointF,Humidity,Sea Level PressureIn,VisibilityMPH,Wind Direction,Wind SpeedMPH,Gust SpeedMPH,PrecipitationIn,Events,Conditions,WindDirDegrees,DateUTC
12:53 AM,19.9,12.9,74,30.29,10.0,WSW,6.9,-,N/A,,Scattered Clouds,240,2013-02-28 07:53:00
1:53 AM,21.0,12.9,71,30.29,10.0,SW,8.1,-,N/A,,Clear,230,2013-02-28 08:53:00
2:53 AM,17.1,12.0,81,30.30,10.0,WSW,6.9,-,N/A,,Clear,240,2013-02-28 09:53:00
3:53 AM,16.0,10.9,81,30.31,10.0,SSW,8.1,-,N/A,,Clear,210,2013-02-28 10:53:00
4:53 AM,17.1,10.0,74,30.32,10.0,WSW,8.1,-,N/A,,Clear,240,2013-02-28 11:53:00
5:53 AM,17.1,10.0,74,30.33,10.0,West,9.2,-,N/A,,Clear,260,2013-02-28 12:53:00
7:53 AM,23.0,12.0,63,30.36,10.0,West,19.6,-,N/A,,Clear,270,2013-02-28 14:53:00
8:53 AM,30.0,12.9,49,30.33,10.0,West,16.1,-,N/A,,Clear,280,2013-02-28 15:53:00
9:53 AM,37.9,14.0,38,30.31,10.0,West,17.3,-,N/A,,Clear,270,2013-02-28 16:53:00
10:53 AM,44.1,10.9,26,30.28,10.0,West,9.2,17.3,N/A,,Clear,280,2013-02-28 17:53:00
11:53 AM,46.9,8.1,21,30.25,10.0,North,15.0,23.0,N/A,,Clear,360,2013-02-28 18:53:00
12:53 PM,48.9,5.0,17,30.21,10.0,NW,9.2,29.9,N/A,,Clear,310,2013-02-28 19:53:00
2:53 PM,51.1,5.0,15,30.17,10.0,NW,15.0,20.7,N/A,,Partly Cloudy,310,2013-02-28 21:53:00
3:53 PM,50.0,1.9,14,30.17,10.0,North,17.3,-,N/A,,Clear,350,2013-02-28 22:53:00
4:53 PM,46.9,5.0,18,30.19,10.0,North,16.1,-,N/A,,Clear,360,2013-02-28 23:53:00
5:53 PM,42.1,6.1,23,30.21,10.0,North,15.0,-,N/A,,Partly Cloudy,360,2013-03-01 00:53:00
7:53 PM,35.1,10.9,37,30.26,10.0,North,4.6,-,N/A,,Overcast,350,2013-03-01 02:53:00
8:53 PM,35.1,12.0,39,30.26,10.0,NW,3.5,-,N/A,,Mostly Cloudy,320,2013-03-01 03:53:00
9:53 PM,34.0,14.0,44,30.25,10.0,NNW,6.9,-,N/A,,Overcast,340,2013-03-01 04:53:00
10:53 PM,32.0,14.0,48,30.22,10.0,Calm,Calm,-,N/A,,Scattered Clouds,0,2013-03-01 05:53:00
11:53 PM,28.0,12.9,53,30.22,10.0,SSW,5.8,-,N/A,,Mostly Cloudy,210,2013-03-01 06:53:00